createdAt,value
2022-10-26T00:00:42.525Z,985.2
2022-10-26T00:04:45.619Z,985.1
2022-10-26T00:06:47.088Z,985.2
2022-10-26T00:08:48.702Z,985.1
2022-10-26T00:10:50.117Z,985.2
2022-10-26T00:12:51.769Z,985.1
2022-10-26T00:14:52.962Z,985.1
2022-10-26T00:16:54.892Z,985.1
2022-10-26T00:18:55.838Z,985
2022-10-26T00:20:57.067Z,985.1
2022-10-26T00:22:58.067Z,985
2022-10-26T00:25:00.004Z,985.1
2022-10-26T00:27:01.071Z,985
2022-10-26T00:31:03.292Z,985
2022-10-26T00:33:04.649Z,985.1
2022-10-26T00:35:10.286Z,985.1
2022-10-26T00:37:07.268Z,985
2022-10-26T00:41:10.360Z,985.1
2022-10-26T00:43:11.549Z,985
2022-10-26T00:45:13.149Z,985
2022-10-26T00:47:14.571Z,985
2022-10-26T00:49:15.975Z,985
2022-10-26T00:51:17.822Z,984.9
2022-10-26T00:53:19.189Z,985
2022-10-26T00:55:21.051Z,984.9
2022-10-26T00:57:22.129Z,984.9
2022-10-26T00:59:23.635Z,984.8
2022-10-26T01:01:25.023Z,984.9
2022-10-26T01:03:26.806Z,984.8
2022-10-26T01:05:28.121Z,984.8
2022-10-26T01:07:29.283Z,984.9
2022-10-26T01:09:30.523Z,985.1
2022-10-26T01:11:32.366Z,985.4
2022-10-26T01:13:33.321Z,985.5
2022-10-26T01:15:34.657Z,985.2
2022-10-26T01:17:35.963Z,985.4
2022-10-26T01:19:37.491Z,985.4
2022-10-26T01:21:38.964Z,985.4
2022-10-26T01:23:40.621Z,985.4
2022-10-26T01:25:42.146Z,985.3
2022-10-26T01:29:44.204Z,985.2
2022-10-26T01:31:45.891Z,985.2
2022-10-26T01:33:47.518Z,985.1
2022-10-26T01:35:48.497Z,985.1
2022-10-26T01:37:50.542Z,984.9
2022-10-26T01:39:51.482Z,984.9
2022-10-26T01:41:53.130Z,985
2022-10-26T01:43:55.079Z,984.9
2022-10-26T01:45:56.509Z,985
2022-10-26T01:47:57.883Z,985
2022-10-26T01:49:58.873Z,984.9
2022-10-26T01:51:59.960Z,984.9
2022-10-26T01:54:00.917Z,984.8
2022-10-26T01:56:01.942Z,984.9
2022-10-26T01:58:03.224Z,984.8
2022-10-26T02:00:04.928Z,984.8
2022-10-26T02:02:06.814Z,984.8
2022-10-26T02:04:07.882Z,984.8
2022-10-26T02:06:09.565Z,984.8
2022-10-26T02:08:10.743Z,984.8
2022-10-26T02:10:12.353Z,984.8
2022-10-26T02:12:13.877Z,985
2022-10-26T02:16:16.758Z,984.9
2022-10-26T02:18:17.787Z,984.9
2022-10-26T02:20:19.699Z,984.9
2022-10-26T02:22:20.905Z,984.8
2022-10-26T02:24:22.677Z,984.7
2022-10-26T02:28:26.003Z,984.8
2022-10-26T02:30:27.306Z,984.7
2022-10-26T02:32:28.557Z,984.8
2022-10-26T02:34:30.257Z,984.8
2022-10-26T02:36:31.675Z,984.7
2022-10-26T02:38:32.715Z,984.8
2022-10-26T02:40:34.218Z,984.8
2022-10-26T02:42:35.907Z,984.7
2022-10-26T02:44:37.671Z,984.7
2022-10-26T02:46:38.894Z,984.6
2022-10-26T02:48:40.302Z,984.5
2022-10-26T02:50:41.853Z,984.5
2022-10-26T02:54:44.782Z,984.5
2022-10-26T02:56:46.236Z,984.4
2022-10-26T02:58:47.162Z,984.4
2022-10-26T03:00:48.260Z,984.4
2022-10-26T03:02:50.000Z,984.5
2022-10-26T03:04:51.108Z,984.4
2022-10-26T03:06:52.196Z,984.5
2022-10-26T03:08:53.575Z,984.5
2022-10-26T03:10:55.270Z,984.5
2022-10-26T03:12:56.462Z,984.5
2022-10-26T03:14:57.570Z,984.5
2022-10-26T03:16:59.166Z,984.5
2022-10-26T03:19:01.025Z,984.6
2022-10-26T03:21:02.030Z,984.5
2022-10-26T03:23:03.495Z,984.5
2022-10-26T03:25:04.831Z,984.5
2022-10-26T03:27:05.806Z,984.6
2022-10-26T03:29:07.687Z,984.5
2022-10-26T03:31:09.153Z,984.6
2022-10-26T03:33:10.565Z,984.6
2022-10-26T03:35:12.278Z,984.6
2022-10-26T03:37:13.947Z,984.5
2022-10-26T03:39:15.043Z,984.8
2022-10-26T03:41:16.571Z,984.7
2022-10-26T03:43:18.252Z,984.8
2022-10-26T03:45:19.423Z,984.8
2022-10-26T03:47:21.397Z,984.7
2022-10-26T03:49:22.592Z,984.8
2022-10-26T03:53:25.529Z,984.8
2022-10-26T03:55:27.350Z,984.7
2022-10-26T03:57:28.844Z,984.8
2022-10-26T03:59:30.535Z,984.8
2022-10-26T04:01:32.158Z,984.8
2022-10-26T04:03:33.622Z,984.8
2022-10-26T04:05:35.045Z,984.7
2022-10-26T04:07:36.478Z,984.8
2022-10-26T04:09:37.736Z,985
2022-10-26T04:11:39.616Z,985
2022-10-26T04:13:41.040Z,984.9
2022-10-26T04:15:42.358Z,984.9
2022-10-26T04:17:43.572Z,984.9
2022-10-26T04:19:45.432Z,984.9
2022-10-26T04:21:46.898Z,984.9
2022-10-26T04:23:48.815Z,985.1
2022-10-26T04:25:50.382Z,985
2022-10-26T04:27:51.727Z,985
2022-10-26T04:29:52.479Z,985
2022-10-26T04:31:53.669Z,984.9
2022-10-26T04:33:55.344Z,984.7
2022-10-26T04:35:57.176Z,984.7
2022-10-26T04:37:58.401Z,984.8
2022-10-26T04:39:59.955Z,984.8
2022-10-26T04:42:01.354Z,984.8
2022-10-26T04:44:02.527Z,984.8
2022-10-26T04:46:03.691Z,984.8
2022-10-26T04:48:04.883Z,984.8
2022-10-26T04:52:07.257Z,984.7
2022-10-26T04:54:08.945Z,984.9
2022-10-26T04:56:10.438Z,984.9
2022-10-26T04:58:12.254Z,984.9
2022-10-26T05:00:13.784Z,984.8
2022-10-26T05:02:15.191Z,984.7
2022-10-26T05:04:16.130Z,984.6
2022-10-26T05:06:17.314Z,984.6
2022-10-26T05:08:18.644Z,984.6
2022-10-26T05:10:20.100Z,984.6
2022-10-26T05:12:21.371Z,984.6
2022-10-26T05:14:22.810Z,984.6
2022-10-26T05:16:24.156Z,984.7
2022-10-26T05:18:25.990Z,984.7
2022-10-26T05:20:27.351Z,984.7
2022-10-26T05:22:28.353Z,984.6
2022-10-26T05:25:13.305Z,984.7
2022-10-26T05:27:14.448Z,984.6
2022-10-26T05:29:15.647Z,984.6
2022-10-26T05:31:17.403Z,984.7
2022-10-26T05:33:18.572Z,984.7
2022-10-26T05:35:20.292Z,984.7
2022-10-26T05:37:21.095Z,984.7
2022-10-26T05:39:22.315Z,984.6
2022-10-26T05:41:23.427Z,984.6
2022-10-26T05:43:25.117Z,984.7
2022-10-26T05:45:26.319Z,984.7
2022-10-26T05:47:27.346Z,984.7
2022-10-26T05:49:29.094Z,984.7
2022-10-26T05:51:30.492Z,984.6
2022-10-26T05:53:32.202Z,984.6
2022-10-26T05:55:33.904Z,984.5
2022-10-26T05:57:35.025Z,984.5
2022-10-26T05:59:36.839Z,984.6
2022-10-26T06:01:38.003Z,984.7
2022-10-26T06:03:38.912Z,984.6
2022-10-26T06:05:39.923Z,984.5
2022-10-26T06:07:41.136Z,984.6
2022-10-26T06:09:42.029Z,984.7
2022-10-26T06:11:43.379Z,984.8
2022-10-26T06:13:44.515Z,984.7
2022-10-26T06:15:46.181Z,984.7
2022-10-26T06:17:47.656Z,984.7
2022-10-26T06:19:49.481Z,984.8
2022-10-26T06:21:50.854Z,985
2022-10-26T06:23:52.198Z,984.9
2022-10-26T06:27:55.049Z,985
2022-10-26T06:29:56.858Z,985
2022-10-26T06:31:58.345Z,984.9
2022-10-26T06:33:59.432Z,985
2022-10-26T06:36:00.599Z,985
2022-10-26T06:38:02.513Z,985.1
2022-10-26T06:40:04.144Z,985.1
2022-10-26T06:42:05.638Z,985.2
2022-10-26T06:44:07.318Z,985.3
2022-10-26T06:46:08.641Z,985.4
2022-10-26T06:48:10.549Z,985.5
2022-10-26T06:50:11.891Z,985.5
2022-10-26T06:52:12.954Z,985.5
2022-10-26T06:54:13.889Z,985.5
2022-10-26T06:56:14.952Z,985.5
2022-10-26T06:58:16.559Z,985.6
2022-10-26T07:00:17.656Z,985.6
2022-10-26T07:02:18.891Z,985.7
2022-10-26T07:04:19.994Z,985.6
2022-10-26T07:06:21.548Z,985.6
2022-10-26T07:08:22.955Z,985.7
2022-10-26T07:10:24.858Z,985.7
2022-10-26T07:12:28.454Z,985.7
2022-10-26T07:14:27.837Z,985.6
2022-10-26T07:16:29.303Z,985.8
2022-10-26T07:18:31.121Z,985.7
2022-10-26T07:20:32.134Z,985.8
2022-10-26T07:22:32.967Z,985.8
2022-10-26T07:24:34.332Z,985.8
2022-10-26T07:26:35.568Z,985.8
2022-10-26T07:28:37.177Z,985.9
2022-10-26T07:30:38.269Z,985.9
2022-10-26T07:32:39.861Z,986
2022-10-26T07:34:40.996Z,986
2022-10-26T07:36:42.426Z,986
2022-10-26T07:38:44.249Z,986
2022-10-26T07:40:45.392Z,985.9
2022-10-26T07:42:47.611Z,986.1
2022-10-26T07:44:47.906Z,986.1
2022-10-26T07:46:49.191Z,986.2
2022-10-26T07:50:51.810Z,986.2
2022-10-26T07:54:54.501Z,986.2
2022-10-26T07:56:56.097Z,986.1
2022-10-26T07:58:57.845Z,986.2
2022-10-26T08:00:58.922Z,986.1
2022-10-26T08:03:00.764Z,986.1
2022-10-26T08:05:01.748Z,986.2
2022-10-26T08:07:03.168Z,986.3
2022-10-26T08:09:04.931Z,986.3
2022-10-26T08:11:06.149Z,986.3
2022-10-26T08:13:08.025Z,986.2
2022-10-26T08:15:09.594Z,986.3
2022-10-26T08:17:10.726Z,986.3
2022-10-26T08:19:12.200Z,986.3
2022-10-26T08:21:21.556Z,986.4
2022-10-26T08:23:15.814Z,986.4
2022-10-26T08:25:18.904Z,986.4
2022-10-26T08:27:17.718Z,986.3
2022-10-26T08:29:19.537Z,986.3
2022-10-26T08:31:20.471Z,986.3
2022-10-26T08:33:21.680Z,986.3
2022-10-26T08:35:22.833Z,986.2
2022-10-26T08:37:24.339Z,986.3
2022-10-26T08:39:25.981Z,986.3
2022-10-26T08:41:27.055Z,986.4
2022-10-26T08:43:28.117Z,986.4
2022-10-26T08:45:33.123Z,986.4
2022-10-26T08:47:31.130Z,986.4
2022-10-26T08:49:32.236Z,986.4
2022-10-26T08:51:33.869Z,986.4
2022-10-26T08:53:35.088Z,986.4
2022-10-26T08:55:36.845Z,986.4
2022-10-26T08:57:38.319Z,986.5
2022-10-26T08:59:40.098Z,986.5
2022-10-26T09:01:41.562Z,986.4
2022-10-26T09:03:42.449Z,986.4
2022-10-26T09:05:43.945Z,986.4
2022-10-26T09:07:45.679Z,986.4
2022-10-26T09:09:47.383Z,986.4
2022-10-26T09:11:49.128Z,986.4
2022-10-26T09:13:50.746Z,986.3
2022-10-26T09:15:51.668Z,986.3
2022-10-26T09:17:52.968Z,986.4
2022-10-26T09:19:54.622Z,986.4
2022-10-26T09:21:55.512Z,986.4
2022-10-26T09:23:57.204Z,986.4
2022-10-26T09:28:00.036Z,986.4
2022-10-26T09:30:01.806Z,986.4
2022-10-26T09:32:02.728Z,986.4
2022-10-26T09:34:03.607Z,986.5
2022-10-26T09:36:05.262Z,986.5
2022-10-26T09:38:06.476Z,986.6
2022-10-26T09:40:08.219Z,986.6
2022-10-26T09:42:09.439Z,986.7
2022-10-26T09:44:10.642Z,986.8
2022-10-26T09:46:11.708Z,986.8
2022-10-26T09:48:13.154Z,986.7
2022-10-26T09:50:14.157Z,986.7
2022-10-26T09:52:15.143Z,986.7
2022-10-26T09:54:16.741Z,986.8
2022-10-26T09:56:18.462Z,986.8
2022-10-26T09:58:19.903Z,986.8
2022-10-26T10:00:21.083Z,986.9
2022-10-26T10:02:21.899Z,986.9
2022-10-26T10:04:22.821Z,986.9
2022-10-26T10:06:24.034Z,987
2022-10-26T10:08:25.864Z,987
2022-10-26T10:10:27.043Z,987
2022-10-26T10:12:28.720Z,987
2022-10-26T10:16:31.664Z,987
2022-10-26T10:18:32.565Z,987.1
2022-10-26T10:20:33.541Z,987.1
2022-10-26T10:22:34.966Z,987
2022-10-26T10:24:36.335Z,987.1
2022-10-26T10:26:37.304Z,987.1
2022-10-26T10:28:38.690Z,987.1
2022-10-26T10:30:39.976Z,987.1
2022-10-26T10:32:41.610Z,987.1
2022-10-26T10:34:43.054Z,987.1
2022-10-26T10:36:43.931Z,987.2
2022-10-26T10:38:44.931Z,987.2
2022-10-26T10:40:46.710Z,987.1
2022-10-26T10:44:48.991Z,987.2
2022-10-26T10:46:50.412Z,987.3
2022-10-26T10:48:51.580Z,987.1
2022-10-26T10:50:53.350Z,987.2
2022-10-26T10:52:54.598Z,987.2
2022-10-26T10:54:56.373Z,987.1
2022-10-26T10:58:59.561Z,987.1
2022-10-26T11:01:01.263Z,987.1
2022-10-26T11:03:02.966Z,987.1
2022-10-26T11:05:04.769Z,987.1
2022-10-26T11:07:06.546Z,987.1
2022-10-26T11:09:07.779Z,987.1
2022-10-26T11:11:08.850Z,987.1
2022-10-26T11:13:10.343Z,987.2
2022-10-26T11:15:11.328Z,987.1
2022-10-26T11:17:12.908Z,987.2
2022-10-26T11:19:14.691Z,987.3
2022-10-26T11:21:16.268Z,987.2
2022-10-26T11:23:17.301Z,987.2
2022-10-26T11:25:18.321Z,987.2
2022-10-26T11:27:19.355Z,987.3
2022-10-26T11:29:20.626Z,987.2
2022-10-26T11:31:21.660Z,987.2
2022-10-26T11:33:23.320Z,987.2
2022-10-26T11:35:24.407Z,987.2
2022-10-26T11:37:25.250Z,987.2
2022-10-26T11:39:26.234Z,987.3
2022-10-26T11:41:27.362Z,987.3
2022-10-26T11:43:28.744Z,987.2
2022-10-26T11:45:30.145Z,987.4
2022-10-26T11:47:31.819Z,987.3
2022-10-26T11:49:33.261Z,987.3
2022-10-26T11:51:34.265Z,987.4
2022-10-26T11:53:35.939Z,987.4
2022-10-26T11:57:38.638Z,987.5
2022-10-26T11:59:40.392Z,987.4
2022-10-26T12:01:41.608Z,987.4
2022-10-26T12:03:42.570Z,987.5
2022-10-26T12:05:43.389Z,987.5
2022-10-26T12:07:45.049Z,987.5
2022-10-26T12:08:28.783Z,987.4
2022-10-26T12:12:31.675Z,987.5
2022-10-26T12:14:33.096Z,987.6
2022-10-26T12:16:34.883Z,987.5
2022-10-26T12:18:54.333Z,987.6
2022-10-26T12:20:37.728Z,987.6
2022-10-26T12:22:39.261Z,987.6
2022-10-26T12:24:40.927Z,987.7
2022-10-26T12:26:42.654Z,987.5
2022-10-26T12:28:43.781Z,987.6
2022-10-26T12:30:45.283Z,987.5
2022-10-26T12:32:47.058Z,987.7
2022-10-26T12:34:48.131Z,987.7
2022-10-26T12:36:49.393Z,987.7
2022-10-26T12:38:51.127Z,987.7
2022-10-26T12:40:52.501Z,987.8
2022-10-26T12:42:53.566Z,987.9
2022-10-26T12:44:55.059Z,987.7
2022-10-26T12:46:55.727Z,987.8
2022-10-26T12:48:56.536Z,987.8
2022-10-26T12:50:57.914Z,987.7
2022-10-26T12:52:59.368Z,987.8
2022-10-26T12:55:00.895Z,987.8
2022-10-26T12:57:02.182Z,987.8
2022-10-26T12:59:04.966Z,987.9
2022-10-26T13:01:05.600Z,988
2022-10-26T13:03:07.008Z,987.8
2022-10-26T13:05:08.242Z,987.9
2022-10-26T13:07:09.004Z,988
2022-10-26T13:09:10.370Z,987.9
2022-10-26T13:11:11.931Z,988
2022-10-26T13:13:13.001Z,987.8
2022-10-26T13:17:15.621Z,987.9
2022-10-26T13:19:17.752Z,988
2022-10-26T13:21:17.608Z,988
2022-10-26T13:23:19.207Z,987.9
2022-10-26T13:25:20.629Z,988
2022-10-26T13:27:22.135Z,988.1
2022-10-26T13:29:23.341Z,988
2022-10-26T13:33:25.992Z,988
2022-10-26T13:35:27.545Z,988
2022-10-26T13:37:28.689Z,988
2022-10-26T13:39:30.250Z,988
2022-10-26T13:41:31.205Z,988.1
2022-10-26T13:43:32.405Z,988.2
2022-10-26T13:45:33.483Z,988.1
2022-10-26T13:47:35.084Z,988.1
2022-10-26T13:49:36.818Z,988.2
2022-10-26T13:51:37.816Z,988.2
2022-10-26T13:53:40.447Z,988.2
2022-10-26T13:55:40.096Z,988.2
2022-10-26T13:57:41.361Z,988.2
2022-10-26T13:59:42.929Z,988.3
2022-10-26T14:01:44.318Z,988.3
2022-10-26T14:03:45.656Z,988.3
2022-10-26T14:05:47.254Z,988.4
2022-10-26T14:07:50.306Z,988.3
2022-10-26T14:09:50.003Z,988.3
2022-10-26T14:15:53.609Z,988.4
2022-10-26T14:17:55.103Z,988.4
2022-10-26T14:19:56.114Z,988.5
2022-10-26T14:21:57.498Z,988.4
2022-10-26T14:23:59.238Z,988.5
2022-10-26T14:26:00.341Z,988.5
2022-10-26T14:28:01.927Z,988.6
2022-10-26T14:32:03.809Z,988.5
2022-10-26T14:34:05.087Z,988.6
2022-10-26T14:36:06.084Z,988.5
2022-10-26T14:38:07.813Z,988.6
2022-10-26T14:40:09.408Z,988.5
2022-10-26T14:42:10.344Z,988.6
2022-10-26T14:44:11.805Z,988.5
2022-10-26T14:46:12.766Z,988.5
2022-10-26T14:48:13.656Z,988.6
2022-10-26T14:50:14.814Z,988.5
2022-10-26T14:52:15.694Z,988.5
2022-10-26T14:54:17.292Z,988.6
2022-10-26T14:58:23.023Z,988.7
2022-10-26T15:00:21.352Z,988.6
2022-10-26T15:02:22.571Z,988.7
2022-10-26T15:04:24.010Z,988.7
2022-10-26T15:08:29.238Z,988.8
2022-10-26T15:10:27.982Z,988.8
2022-10-26T15:14:30.218Z,988.8
2022-10-26T15:16:31.608Z,988.9
2022-10-26T15:18:32.844Z,988.9
2022-10-26T15:20:34.001Z,988.9
2022-10-26T15:22:35.668Z,988.9
2022-10-26T15:24:37.748Z,988.9
2022-10-26T15:26:38.611Z,988.9
2022-10-26T15:28:39.708Z,988.9
2022-10-26T15:30:41.374Z,989
2022-10-26T15:32:43.123Z,988.9
2022-10-26T15:34:44.035Z,988.9
2022-10-26T15:36:45.193Z,989.1
2022-10-26T15:38:46.244Z,989
2022-10-26T15:42:49.702Z,989.1
2022-10-26T15:44:50.751Z,989.1
2022-10-26T15:46:52.023Z,989.2
2022-10-26T15:48:53.711Z,989.3
2022-10-26T15:50:55.376Z,989.3
2022-10-26T15:52:56.752Z,989.3
2022-10-26T15:54:58.137Z,989.2
2022-10-26T15:57:07.716Z,989.3
2022-10-26T15:59:01.848Z,989.3
2022-10-26T16:02:16.547Z,989.4
2022-10-26T16:03:03.935Z,989.3
2022-10-26T16:05:04.904Z,989.4
2022-10-26T16:07:06.290Z,989.4
2022-10-26T16:09:07.986Z,989.5
2022-10-26T16:11:09.672Z,989.4
2022-10-26T16:13:10.847Z,989.4
2022-10-26T16:15:12.250Z,989.5
2022-10-26T16:17:13.643Z,989.5
2022-10-26T16:19:30.198Z,989.5
2022-10-26T16:21:16.281Z,989.5
2022-10-26T16:23:17.743Z,989.4
2022-10-26T16:25:19.375Z,989.5
2022-10-26T16:27:21.192Z,989.5
2022-10-26T16:29:22.573Z,989.5
2022-10-26T16:31:24.238Z,989.5
2022-10-26T16:33:25.225Z,989.6
2022-10-26T16:35:26.532Z,989.6
2022-10-26T16:37:27.705Z,989.6
2022-10-26T16:41:30.236Z,989.7
2022-10-26T16:43:31.413Z,989.7
2022-10-26T16:45:32.540Z,989.8
2022-10-26T16:47:33.882Z,989.8
2022-10-26T16:49:35.193Z,989.8
2022-10-26T16:51:36.420Z,989.8
2022-10-26T16:53:37.868Z,989.9
2022-10-26T16:55:38.813Z,989.9
2022-10-26T16:57:40.297Z,990
2022-10-26T16:59:41.551Z,990
2022-10-26T17:01:43.150Z,990
2022-10-26T17:03:44.625Z,990.1
2022-10-26T17:05:45.672Z,990
2022-10-26T17:07:47.589Z,990.1
2022-10-26T17:09:49.041Z,990
2022-10-26T17:11:50.322Z,990.1
2022-10-26T17:13:51.953Z,990.1
2022-10-26T17:15:53.638Z,990.2
2022-10-26T17:17:55.168Z,990.2
2022-10-26T17:19:56.058Z,990.2
2022-10-26T17:21:57.147Z,990.2
2022-10-26T17:23:58.280Z,990.3
2022-10-26T17:26:00.042Z,990.3
2022-10-26T17:28:01.898Z,990.4
2022-10-26T17:30:02.977Z,990.5
2022-10-26T17:32:04.497Z,990.4
2022-10-26T17:34:06.059Z,990.5
2022-10-26T17:36:07.160Z,990.5
2022-10-26T17:38:08.756Z,990.4
2022-10-26T17:40:10.284Z,990.5
2022-10-26T17:42:11.464Z,990.5
2022-10-26T17:44:13.033Z,990.6
2022-10-26T17:46:14.606Z,990.5
2022-10-26T17:50:17.777Z,990.7
2022-10-26T17:52:19.396Z,990.7
2022-10-26T17:54:21.103Z,990.7
2022-10-26T17:56:22.502Z,990.7
2022-10-26T18:00:25.487Z,990.8
2022-10-26T18:02:27.348Z,990.7
2022-10-26T18:04:28.990Z,990.8
2022-10-26T18:06:30.313Z,990.8
2022-10-26T18:08:31.345Z,990.8
2022-10-26T18:10:37.743Z,990.8
2022-10-26T18:12:33.765Z,990.8
2022-10-26T18:14:35.190Z,990.8
2022-10-26T18:16:36.335Z,990.9
2022-10-26T18:18:38.022Z,990.8
2022-10-26T18:20:39.869Z,990.9
2022-10-26T18:22:41.345Z,991
2022-10-26T18:24:43.172Z,991
2022-10-26T18:26:44.108Z,991
2022-10-26T18:28:45.506Z,991.1
2022-10-26T18:30:46.964Z,991.1
2022-10-26T18:32:48.222Z,991.1
2022-10-26T18:34:49.570Z,991.2
2022-10-26T18:36:50.487Z,991.2
2022-10-26T18:38:52.003Z,991.1
2022-10-26T18:40:53.359Z,991.1
2022-10-26T18:42:54.972Z,991.1
2022-10-26T18:48:59.852Z,991.2
2022-10-26T18:51:01.016Z,991.2
2022-10-26T18:53:02.867Z,991.2
2022-10-26T18:53:46.677Z,991.3
2022-10-26T18:55:47.603Z,991.2
2022-10-26T18:59:54.115Z,991.3
2022-10-26T19:01:52.640Z,991.3
2022-10-26T19:03:53.392Z,991.3
2022-10-26T19:05:54.547Z,991.3
2022-10-26T19:07:56.267Z,991.4
2022-10-26T19:09:57.420Z,991.3
2022-10-26T19:11:59.039Z,991.4
2022-10-26T19:14:00.297Z,991.4
2022-10-26T19:16:01.986Z,991.4
2022-10-26T19:18:03.025Z,991.4
2022-10-26T19:20:04.618Z,991.4
2022-10-26T19:22:05.939Z,991.4
2022-10-26T19:24:07.271Z,991.4
2022-10-26T19:26:08.290Z,991.4
2022-10-26T19:28:09.476Z,991.5
2022-10-26T19:30:11.114Z,991.5
2022-10-26T19:32:12.846Z,991.6
2022-10-26T19:34:14.459Z,991.5
2022-10-26T19:36:15.594Z,991.5
2022-10-26T19:38:17.436Z,991.5
2022-10-26T19:40:19.124Z,991.5
2022-10-26T19:42:20.171Z,991.6
2022-10-26T19:44:25.182Z,991.6
2022-10-26T19:46:22.979Z,991.7
2022-10-26T19:48:24.683Z,991.7
2022-10-26T19:50:25.852Z,991.6
2022-10-26T19:52:27.298Z,991.7
2022-10-26T19:54:29.065Z,991.6
2022-10-26T19:56:30.850Z,991.7
2022-10-26T19:58:32.234Z,991.7
2022-10-26T20:00:33.996Z,991.7
2022-10-26T20:02:34.805Z,991.7
2022-10-26T20:04:36.634Z,991.8
2022-10-26T20:06:37.841Z,991.9
2022-10-26T20:08:39.220Z,991.8
2022-10-26T20:10:40.491Z,991.9
2022-10-26T20:12:42.155Z,991.7
2022-10-26T20:14:43.634Z,991.8
2022-10-26T20:16:44.628Z,991.8
2022-10-26T20:18:48.831Z,991.8
2022-10-26T20:20:47.422Z,991.8
2022-10-26T20:22:49.167Z,991.8
2022-10-26T20:24:50.512Z,991.9
2022-10-26T20:26:52.381Z,991.9
2022-10-26T20:28:53.989Z,991.9
2022-10-26T20:30:55.516Z,991.9
2022-10-26T20:32:56.632Z,991.9
2022-10-26T20:34:58.311Z,992
2022-10-26T20:36:59.352Z,991.9
2022-10-26T20:39:00.797Z,992
2022-10-26T20:41:04.740Z,992
2022-10-26T20:43:03.773Z,992.1
2022-10-26T20:47:07.086Z,992.1
2022-10-26T20:49:08.026Z,992.1
2022-10-26T20:51:09.159Z,992.2
2022-10-26T20:53:10.621Z,992.1
2022-10-26T20:55:11.773Z,992.2
2022-10-26T20:57:13.418Z,992.2
2022-10-26T21:01:16.657Z,992.2
2022-10-26T21:03:18.071Z,992.2
2022-10-26T21:05:19.547Z,992.2
2022-10-26T21:07:20.736Z,992.2
2022-10-26T21:09:23.332Z,992.2
2022-10-26T21:11:23.413Z,992.3
2022-10-26T21:13:24.575Z,992.2
2022-10-26T21:15:26.462Z,992.2
2022-10-26T21:17:28.356Z,992.3
2022-10-26T21:19:29.444Z,992.2
2022-10-26T21:21:31.211Z,992.2
2022-10-26T21:23:32.774Z,992.3
2022-10-26T21:25:33.814Z,992.2
2022-10-26T21:27:35.333Z,992.3
2022-10-26T21:29:36.468Z,992.3
2022-10-26T21:31:37.392Z,992.3
2022-10-26T21:33:38.429Z,992.4
2022-10-26T21:35:39.925Z,992.3
2022-10-26T21:37:41.067Z,992.2
2022-10-26T21:39:42.237Z,992.3
2022-10-26T21:41:43.626Z,992.3
2022-10-26T21:43:45.454Z,992.3
2022-10-26T21:45:46.702Z,992.4
2022-10-26T21:47:47.852Z,992.3
2022-10-26T21:49:49.474Z,992.3
2022-10-26T21:51:50.465Z,992.4
2022-10-26T21:53:51.869Z,992.4
2022-10-26T21:55:53.659Z,992.3
2022-10-26T21:57:55.547Z,992.4
2022-10-26T21:59:57.289Z,992.4
2022-10-26T22:01:58.956Z,992.3
2022-10-26T22:03:59.789Z,992.4
2022-10-26T22:06:00.707Z,992.3
2022-10-26T22:08:01.644Z,992.3
2022-10-26T22:10:11.082Z,992.3
2022-10-26T22:12:04.798Z,992.2
2022-10-26T22:14:06.693Z,992.2
2022-10-26T22:16:08.595Z,992.3
2022-10-26T22:18:09.716Z,992.2
2022-10-26T22:20:11.385Z,992.3
2022-10-26T22:22:12.335Z,992.4
2022-10-26T22:24:13.936Z,992.3
2022-10-26T22:26:15.151Z,992.3
2022-10-26T22:28:16.672Z,992.4
2022-10-26T22:32:20.159Z,992.4
2022-10-26T22:34:21.357Z,992.4
2022-10-26T22:36:22.614Z,992.5
2022-10-26T22:38:23.633Z,992.5
2022-10-26T22:42:26.999Z,992.4
2022-10-26T22:44:28.624Z,992.4
2022-10-26T22:46:30.256Z,992.4
2022-10-26T22:48:31.347Z,992.4
2022-10-26T22:50:33.016Z,992.4
2022-10-26T22:52:34.113Z,992.4
2022-10-26T22:54:34.983Z,992.4
2022-10-26T22:56:36.223Z,992.4
2022-10-26T22:58:37.827Z,992.5
2022-10-26T23:00:39.308Z,992.5
2022-10-26T23:02:40.388Z,992.6
2022-10-26T23:06:43.166Z,992.5
2022-10-26T23:08:45.091Z,992.5
2022-10-26T23:10:46.624Z,992.5
2022-10-26T23:12:47.888Z,992.5
2022-10-26T23:14:49.630Z,992.5
2022-10-26T23:16:51.497Z,992.6
2022-10-26T23:18:52.648Z,992.5
2022-10-26T23:20:53.732Z,992.6
2022-10-26T23:24:57.045Z,992.6
2022-10-26T23:26:58.786Z,992.5
2022-10-26T23:31:01.106Z,992.6
2022-10-26T23:33:02.620Z,992.6
2022-10-26T23:35:03.613Z,992.5
2022-10-26T23:37:05.228Z,992.6
2022-10-26T23:39:06.769Z,992.5
2022-10-26T23:41:09.441Z,992.6
2022-10-26T23:43:08.891Z,992.7
2022-10-26T23:45:10.455Z,992.7
2022-10-26T23:47:12.202Z,992.5
2022-10-26T23:49:13.885Z,992.6
2022-10-26T23:51:15.140Z,992.6
2022-10-26T23:53:16.855Z,992.6
2022-10-26T23:55:18.652Z,992.6
2022-10-26T23:57:19.666Z,992.6
2022-10-26T23:59:21.061Z,992.6
